Time;durP1;ratioP1;P1;durP2;ratioP2;P2;SDS_P1;SDS_P2;PMS_P1;PMS_P2;Temp;Humidity;BMP_temperature;BMP_pressure;BME280_temperature;BME280_humidity;BME280_pressure;Samples;Min_cycle;Max_cycle;Signal;HPM_P1;HPM_P2
2021/06/05 00:01:05;;;;;;;16.92;14.15;;;;;;;17.44;100.00;96680.22;5078641;28;20060;-59
2021/06/05 00:03:34;;;;;;;14.13;12.80;;;;;;;17.64;100.00;96675.19;5079210;28;20075;-58
2021/06/05 00:06:03;;;;;;;14.68;12.75;;;;;;;17.18;100.00;96683.31;5082511;28;20078;-58
2021/06/05 00:08:32;;;;;;;14.40;12.90;;;;;;;17.62;100.00;96669.19;5077988;28;20055;-55
2021/06/05 00:11:04;;;;;;;14.70;13.20;;;;;;;17.79;100.00;96658.22;5076629;28;20068;-57
2021/06/05 00:13:34;;;;;;;15.98;13.77;;;;;;;17.71;100.00;96647.56;5078455;28;20071;-58
2021/06/05 00:16:06;;;;;;;15.15;13.50;;;;;;;17.90;100.00;96651.56;5079164;28;20076;-57
2021/06/05 00:18:35;;;;;;;15.73;13.98;;;;;;;17.93;100.00;96659.22;5080921;28;20138;-58
2021/06/05 00:21:03;;;;;;;15.32;13.60;;;;;;;18.00;100.00;96657.44;5082882;28;20078;-57
2021/06/05 00:23:32;;;;;;;17.00;13.35;;;;;;;18.07;100.00;96659.38;5076670;28;20454;-58
2021/06/05 00:26:00;;;;;;;16.15;13.68;;;;;;;18.09;100.00;96660.81;5080976;28;20064;-58
2021/06/05 00:28:28;;;;;;;15.40;13.13;;;;;;;18.15;100.00;96660.09;5073210;28;20059;-59
2021/06/05 00:30:56;;;;;;;15.10;13.52;;;;;;;18.20;100.00;96663.03;5086780;28;20072;-58
2021/06/05 00:33:26;;;;;;;17.23;13.73;;;;;;;18.26;100.00;96650.75;5070085;28;20547;-54
2021/06/05 00:35:54;;;;;;;17.25;15.38;;;;;;;18.36;100.00;96650.47;5074493;28;20055;-56
2021/06/05 00:38:23;;;;;;;19.80;15.13;;;;;;;18.27;100.00;96657.75;5071891;28;20329;-56
2021/06/05 00:40:55;;;;;;;17.08;15.27;;;;;;;18.10;100.00;96662.50;5075550;28;20061;-56
2021/06/05 00:43:25;;;;;;;15.48;13.88;;;;;;;18.19;100.00;96671.22;5076201;28;20208;-57
2021/06/05 00:45:53;;;;;;;16.00;13.68;;;;;;;17.93;100.00;96671.72;5083885;28;20059;-58
2021/06/05 00:48:22;;;;;;;15.52;13.25;;;;;;;17.72;100.00;96670.59;5054366;28;20091;-57
2021/06/05 00:50:53;;;;;;;15.05;12.35;;;;;;;17.68;100.00;96665.78;5058405;28;20056;-54
2021/06/05 00:53:25;;;;;;;16.25;14.63;;;;;;;17.70;100.00;96669.94;5062478;28;20068;-57
2021/06/05 00:55:55;;;;;;;15.57;13.80;;;;;;;17.48;100.00;96658.34;5060876;28;20068;-57
2021/06/05 00:58:24;;;;;;;17.90;16.00;;;;;;;17.55;100.00;96661.13;5067520;28;20570;-57
2021/06/05 01:00:54;;;;;;;19.60;16.52;;;;;;;17.81;100.00;96649.19;5063437;28;20088;-58
2021/06/05 01:03:23;;;;;;;20.75;16.15;;;;;;;17.55;100.00;96661.94;5065297;28;20245;-56
2021/06/05 01:05:56;;;;;;;17.50;15.70;;;;;;;17.84;100.00;96660.31;5055817;28;20068;-57
2021/06/05 01:08:28;;;;;;;22.38;15.98;;;;;;;17.81;100.00;96652.66;5065441;28;20560;-56
2021/06/05 01:11:01;;;;;;;17.08;15.32;;;;;;;17.93;100.00;96655.72;5059545;28;20071;-58
2021/06/05 01:13:34;;;;;;;17.48;15.65;;;;;;;18.01;100.00;96643.09;5061992;28;20076;-56
2021/06/05 01:16:06;;;;;;;21.70;16.52;;;;;;;17.78;100.00;96645.84;5063987;28;20492;-57
2021/06/05 01:18:38;;;;;;;19.98;17.50;;;;;;;17.72;100.00;96643.91;5064893;28;20564;-57
2021/06/05 01:21:27;;;;;;;20.05;18.05;;;;;;;18.01;100.00;96651.09;5059110;28;20064;-58
2021/06/05 01:24:04;;;;;;;21.40;18.75;;;;;;;17.91;100.00;96653.22;5064540;28;20099;-58
2021/06/05 01:26:35;;;;;;;22.20;19.63;;;;;;;17.81;100.00;96651.84;5058596;28;20071;-57
2021/06/05 01:29:09;;;;;;;20.73;18.52;;;;;;;17.99;100.00;96650.44;5061637;28;20072;-57
2021/06/05 01:31:40;;;;;;;21.85;19.25;;;;;;;17.92;100.00;96652.19;5059754;28;20069;-57
2021/06/05 01:34:08;;;;;;;21.83;19.08;;;;;;;17.99;100.00;96658.44;5062170;28;20083;-54
2021/06/05 01:36:41;;;;;;;20.98;17.52;;;;;;;17.71;100.00;96665.44;5058455;28;20076;-55
2021/06/05 01:39:12;;;;;;;19.50;17.17;;;;;;;17.90;100.00;96666.75;5061940;28;20067;-54
2021/06/05 01:41:43;;;;;;;20.85;16.65;;;;;;;17.59;100.00;96670.41;5060229;28;20091;-55
2021/06/05 01:44:12;;;;;;;17.25;15.30;;;;;;;17.68;100.00;96671.13;5064496;28;20064;-57
2021/06/05 01:46:43;;;;;;;16.20;14.55;;;;;;;17.48;100.00;96673.50;5060894;28;20073;-57
2021/06/05 01:49:10;;;;;;;;;;;;;;;17.62;100.00;96678.03;5061055;28;20087;-55
2021/06/05 01:51:40;;;;;;;18.83;15.13;;;;;;;17.88;100.00;96669.59;5065367;28;20081;-56
2021/06/05 01:54:11;;;;;;;22.27;19.92;;;;;;;17.71;100.00;96674.25;5059704;28;20098;-58
2021/06/05 01:56:43;;;;;;;21.48;19.23;;;;;;;17.81;100.00;96667.84;5058509;28;20079;-55
2021/06/05 01:59:13;;;;;;;21.83;18.67;;;;;;;17.85;100.00;96664.63;5064605;28;20523;-56
2021/06/05 02:01:42;;;;;;;20.88;18.63;;;;;;;18.05;100.00;96670.22;5060579;28;20071;-56
2021/06/05 02:04:11;;;;;;;23.25;19.50;;;;;;;17.96;100.00;96666.00;5059179;28;20453;-56
2021/06/05 02:06:40;;;;;;;20.67;18.58;;;;;;;17.74;100.00;96673.88;5058903;28;20558;-55
2021/06/05 02:09:10;;;;;;;24.23;19.13;;;;;;;17.86;100.00;96676.97;5059758;28;20077;-54
2021/06/05 02:11:42;;;;;;;21.45;19.20;;;;;;;17.85;100.00;96682.47;5058868;28;20076;-52
2021/06/05 02:14:15;;;;;;;22.23;19.80;;;;;;;17.68;100.00;96681.78;5059334;28;20068;-56
2021/06/05 02:16:46;;;;;;;24.92;19.90;;;;;;;17.70;100.00;96683.28;5060445;28;20535;-57
2021/06/05 02:19:22;;;;;;;21.90;19.58;;;;;;;17.56;100.00;96687.59;5059145;28;20481;-56
2021/06/05 02:21:50;;;;;;;22.38;19.92;;;;;;;17.41;100.00;96694.75;5063404;28;20079;-54
2021/06/05 02:24:21;;;;;;;21.92;19.58;;;;;;;17.47;100.00;96696.69;5056478;28;20068;-56
2021/06/05 02:26:50;;;;;;;20.73;18.52;;;;;;;17.56;100.00;96700.09;5059378;28;20095;-54
2021/06/05 02:29:23;;;;;;;20.80;18.60;;;;;;;17.55;100.00;96701.13;5057962;28;20060;-57
2021/06/05 02:31:51;;;;;;;20.25;18.15;;;;;;;17.76;100.00;96703.09;5063456;28;20064;-56
2021/06/05 02:34:22;;;;;;;20.20;17.88;;;;;;;17.82;100.00;96704.19;5060501;28;20532;-57
2021/06/05 02:36:51;;;;;;;18.45;16.45;;;;;;;17.63;100.00;96708.19;5066085;28;20076;-54
2021/06/05 02:39:20;;;;;;;20.52;16.55;;;;;;;17.81;100.00;96708.69;5057053;28;20045;-56
2021/06/05 02:41:52;;;;;;;18.70;16.42;;;;;;;17.75;100.00;96707.53;5059137;28;20531;-58
2021/06/05 02:44:23;;;;;;;16.17;14.48;;;;;;;17.56;100.00;96714.25;5053169;28;20075;-54
2021/06/05 02:46:52;;;;;;;16.75;14.77;;;;;;;17.88;100.00;96714.13;5078968;28;20059;-55
2021/06/05 02:49:29;;;;;;;16.13;14.43;;;;;;;17.94;100.00;96708.88;5057955;28;20060;-58
2021/06/05 02:51:58;;;;;;;16.55;14.75;;;;;;;18.08;100.00;96709.06;5060602;28;20060;-57
2021/06/05 02:54:27;;;;;;;16.60;14.82;;;;;;;18.02;100.00;96702.63;5059631;28;21289;-55
2021/06/05 02:56:56;;;;;;;15.60;13.98;;;;;;;18.00;100.00;96705.47;5057036;28;20500;-58
2021/06/05 02:59:26;;;;;;;15.65;14.05;;;;;;;18.15;100.00;96707.31;5059894;28;20476;-58
2021/06/05 03:02:12;;;;;;;15.75;14.20;;;;;;;18.20;100.00;96696.88;5059405;28;20102;-57
2021/06/05 03:04:40;;;;;;;15.85;14.27;;;;;;;17.88;100.00;96698.94;5057997;28;20518;-56
2021/06/05 03:07:09;;;;;;;16.75;15.07;;;;;;;17.63;100.00;96710.88;5058457;28;20453;-56
2021/06/05 03:09:37;;;;;;;17.40;15.30;;;;;;;17.89;100.00;96697.09;5062775;28;20063;-58
2021/06/05 03:12:08;;;;;;;17.33;15.52;;;;;;;17.78;100.00;96707.22;5059092;28;20056;-59
2021/06/05 03:14:39;;;;;;;18.02;16.08;;;;;;;17.65;100.00;96704.34;5054669;28;20060;-57
2021/06/05 03:17:08;;;;;;;17.33;15.52;;;;;;;18.03;100.00;96698.91;5060251;28;20079;-56
2021/06/05 03:19:36;;;;;;;17.95;16.15;;;;;;;17.42;100.00;96707.06;5056458;28;20080;-57
2021/06/05 03:22:05;;;;;;;17.88;16.00;;;;;;;17.46;100.00;96718.19;5056716;28;20079;-57
2021/06/05 03:24:33;;;;;;;18.85;16.02;;;;;;;17.43;100.00;96706.06;5060465;28;20075;-56
2021/06/05 03:27:02;;;;;;;19.75;15.77;;;;;;;17.42;100.00;96715.06;5057300;28;20060;-55
2021/06/05 03:29:30;;;;;;;17.05;15.23;;;;;;;17.29;100.00;96712.19;5056447;28;20488;-58
2021/06/05 03:31:59;;;;;;;17.08;14.95;;;;;;;17.16;100.00;96709.31;5060663;28;20060;-57
2021/06/05 03:34:28;;;;;;;17.42;15.63;;;;;;;17.20;100.00;96716.75;5058312;28;20080;-55
2021/06/05 03:36:56;;;;;;;18.67;16.65;;;;;;;17.26;100.00;96720.53;5057259;28;20075;-59
2021/06/05 03:39:24;;;;;;;18.02;16.23;;;;;;;17.07;100.00;96717.38;5063473;28;23929;-57
2021/06/05 03:41:52;;;;;;;19.02;16.52;;;;;;;17.08;100.00;96704.88;5051896;28;20064;-63
2021/06/05 03:44:21;;;;;;;19.98;16.48;;;;;;;16.88;100.00;96712.50;5057138;28;20079;-58
2021/06/05 03:46:49;;;;;;;18.05;16.15;;;;;;;16.84;100.00;96706.72;5056902;28;20063;-56
2021/06/05 03:49:19;;;;;;;18.83;16.85;;;;;;;16.99;100.00;96704.09;5058388;28;20412;-56
2021/06/05 03:51:47;;;;;;;21.58;16.58;;;;;;;16.95;100.00;96705.47;5058079;28;20080;-57
2021/06/05 03:54:15;;;;;;;20.20;17.42;;;;;;;16.75;100.00;96713.09;5061594;28;20071;-58
2021/06/05 03:56:43;;;;;;;22.05;17.38;;;;;;;16.84;100.00;96711.22;5059381;28;20063;-58
2021/06/05 03:59:11;;;;;;;20.23;17.13;;;;;;;16.80;100.00;96713.41;5059161;28;20429;-59
2021/06/05 04:01:40;;;;;;;19.58;17.45;;;;;;;16.70;100.00;96719.94;5055545;28;20052;-59
2021/06/05 04:04:08;;;;;;;20.38;17.60;;;;;;;16.72;100.00;96718.75;5065436;28;20060;-58
2021/06/05 04:06:38;;;;;;;23.70;18.35;;;;;;;16.75;100.00;96725.59;5060546;28;20060;-56
2021/06/05 04:09:06;;;;;;;23.02;18.42;;;;;;;16.68;100.00;96725.44;5059476;28;20630;-58
2021/06/05 04:11:34;;;;;;;22.35;17.60;;;;;;;16.61;100.00;96727.16;5058250;28;20075;-59
2021/06/05 04:14:03;;;;;;;20.80;17.85;;;;;;;16.66;100.00;96727.47;5057580;28;20060;-59
2021/06/05 04:16:32;;;;;;;22.30;18.55;;;;;;;16.64;100.00;96724.13;5058166;28;20068;-58
2021/06/05 04:19:00;;;;;;;19.23;17.10;;;;;;;16.70;100.00;96723.44;5057637;28;20072;-56
2021/06/05 04:21:30;;;;;;;18.85;16.80;;;;;;;16.66;100.00;96727.47;5059209;28;20087;-59
2021/06/05 04:23:59;;;;;;;20.15;16.52;;;;;;;16.68;100.00;96724.59;5055700;28;20087;-57
2021/06/05 04:26:27;;;;;;;19.05;17.05;;;;;;;16.87;100.00;96726.03;5061141;28;20511;-59
2021/06/05 04:28:55;;;;;;;18.98;16.13;;;;;;;16.74;100.00;96723.91;5055387;28;20067;-58
2021/06/05 04:31:27;;;;;;;17.75;15.85;;;;;;;16.84;100.00;96721.88;5060884;28;20445;-58
2021/06/05 04:33:56;;;;;;;19.67;16.17;;;;;;;16.96;100.00;96727.59;5059507;28;20068;-56
2021/06/05 04:36:24;;;;;;;18.15;15.10;;;;;;;16.88;100.00;96727.69;5053360;28;20072;-59
2021/06/05 04:38:52;;;;;;;19.92;15.68;;;;;;;17.11;100.00;96723.19;5073214;28;20121;-58
2021/06/05 04:41:21;;;;;;;17.52;15.63;;;;;;;17.06;100.00;96720.19;5052538;28;20063;-57
2021/06/05 04:43:50;;;;;;;19.73;15.40;;;;;;;17.77;100.00;96720.75;5055750;28;20512;-59
2021/06/05 04:46:18;;;;;;;17.67;15.40;;;;;;;19.96;100.00;96692.75;5060061;28;20100;-59
2021/06/05 04:48:47;;;;;;;16.42;13.63;;;;;;;20.66;100.00;96690.78;5056707;28;20075;-58
2021/06/05 04:51:16;;;;;;;14.80;13.30;;;;;;;21.00;100.00;96685.28;5059048;28;20056;-59
2021/06/05 04:53:44;;;;;;;14.87;13.37;;;;;;;21.69;100.00;96693.97;5059727;28;20056;-56
2021/06/05 04:56:17;;;;;;;17.45;14.60;;;;;;;21.29;100.00;96699.31;5057476;28;20499;-58
2021/06/05 04:58:48;;;;;;;16.20;13.17;;;;;;;21.25;100.00;96698.91;5052702;28;20056;-54
2021/06/05 05:01:15;;;;;;;14.98;13.15;;;;;;;21.55;100.00;96694.00;5058810;28;20505;-59
2021/06/05 05:03:44;;;;;;;14.38;12.88;;;;;;;21.75;100.00;96704.72;5059233;28;20476;-59
2021/06/05 05:06:12;;;;;;;13.15;11.75;;;;;;;22.32;100.00;96696.91;5058752;28;20080;-58
2021/06/05 05:08:40;;;;;;;13.27;10.90;;;;;;;22.27;100.00;96699.44;5058520;28;20076;-59
2021/06/05 05:11:08;;;;;;;11.60;10.40;;;;;;;21.65;100.00;96698.13;5058446;28;20063;-56
2021/06/05 05:13:36;;;;;;;11.82;10.40;;;;;;;22.20;100.00;96693.25;5057419;28;20095;-56
2021/06/05 05:16:07;;;;;;;14.05;10.70;;;;;;;22.16;100.00;96697.38;5059333;28;20068;-58
2021/06/05 05:18:35;;;;;;;13.23;9.07;;;;;;;21.98;100.00;96704.22;5066659;28;20087;-58
2021/06/05 05:21:05;;;;;;;11.50;8.40;;;;;;;21.99;100.00;96707.75;5054206;28;20065;-57
2021/06/05 05:23:33;;;;;;;10.65;8.65;;;;;;;22.85;100.00;96696.66;5058628;28;20068;-59
2021/06/05 05:26:04;;;;;;;11.45;8.20;;;;;;;22.64;100.00;96692.44;5055890;28;20071;-58
2021/06/05 05:28:33;;;;;;;12.68;8.23;;;;;;;22.20;100.00;96699.47;5056722;28;20516;-59
2021/06/05 05:31:04;;;;;;;8.85;7.88;;;;;;;22.20;100.00;96702.16;5054182;28;20658;-59
2021/06/05 05:33:38;;;;;;;7.30;6.60;;;;;;;22.29;100.00;96700.03;5055993;28;20473;-59
2021/06/05 05:36:08;;;;;;;8.38;6.57;;;;;;;22.47;100.00;96699.31;5056573;28;20079;-59
2021/06/05 05:38:37;;;;;;;8.25;6.10;;;;;;;21.75;100.00;96693.97;5057318;28;20064;-59
2021/06/05 05:41:05;;;;;;;7.00;5.75;;;;;;;22.97;100.00;96700.31;5054234;28;20072;-58
2021/06/05 05:43:33;;;;;;;7.13;5.88;;;;;;;22.60;100.00;96693.91;5063035;28;20465;-59
2021/06/05 05:46:04;;;;;;;6.32;5.40;;;;;;;21.94;100.00;96703.00;5066775;28;20068;-59
2021/06/05 05:48:34;;;;;;;7.82;5.18;;;;;;;21.97;100.00;96693.72;5068207;28;20076;-57
2021/06/05 05:51:02;;;;;;;6.38;5.57;;;;;;;23.01;100.00;96689.97;5058445;28;20075;-56
2021/06/05 05:53:31;;;;;;;6.75;5.38;;;;;;;22.83;100.00;96684.47;5064888;28;20061;-58
2021/06/05 05:55:59;;;;;;;5.20;4.70;;;;;;;22.41;100.00;96698.34;5060974;28;20543;-59
2021/06/05 05:58:27;;;;;;;5.13;4.57;;;;;;;21.75;100.00;96691.28;5065691;28;20075;-58
2021/06/05 06:00:55;;;;;;;5.50;4.55;;;;;;;21.43;100.00;96684.91;5060571;28;20068;-58
2021/06/05 06:03:23;;;;;;;5.93;4.63;;;;;;;21.56;100.00;96684.91;5061672;28;20296;-58
2021/06/05 06:05:53;;;;;;;4.70;4.13;;;;;;;21.25;100.00;96685.50;5055244;28;20072;-58
2021/06/05 06:08:22;;;;;;;6.40;4.70;;;;;;;21.50;100.00;96685.72;5061974;28;20068;-59
2021/06/05 06:10:50;;;;;;;5.68;4.22;;;;;;;20.90;100.00;96684.88;5056811;28;20077;-59
2021/06/05 06:13:19;;;;;;;8.45;4.55;;;;;;;20.63;100.00;96682.13;5062614;28;20079;-59
2021/06/05 06:15:47;;;;;;;5.97;4.60;;;;;;;20.77;100.00;96682.97;5067618;28;20080;-59
2021/06/05 06:18:16;;;;;;;5.60;4.60;;;;;;;21.33;100.00;96696.03;5063542;28;20527;-58
2021/06/05 06:20:45;;;;;;;5.00;4.13;;;;;;;21.36;100.00;96688.63;5060826;28;20064;-58
2021/06/05 06:23:16;;;;;;;4.88;4.00;;;;;;;21.10;100.00;96687.56;5058636;28;20072;-58
2021/06/05 06:25:48;;;;;;;4.40;4.00;;;;;;;21.09;100.00;96689.44;5058399;28;20064;-59
2021/06/05 06:28:20;;;;;;;5.68;3.80;;;;;;;21.22;100.00;96695.81;5057072;28;20135;-57
2021/06/05 06:30:48;;;;;;;6.88;4.40;;;;;;;21.91;100.00;96698.03;5064392;28;20539;-58
2021/06/05 06:33:17;;;;;;;5.03;4.22;;;;;;;22.05;100.00;96705.03;5058264;28;20075;-58
2021/06/05 06:35:46;;;;;;;4.90;3.90;;;;;;;21.58;100.00;96706.19;5052041;28;20083;-59
2021/06/05 06:38:17;;;;;;;4.30;3.90;;;;;;;22.07;100.00;96702.16;5057444;28;20064;-59
2021/06/05 06:40:46;;;;;;;4.40;4.00;;;;;;;22.18;100.00;96706.06;5058213;28;20450;-58
2021/06/05 06:43:17;;;;;;;4.28;3.88;;;;;;;21.76;100.00;96697.47;5055750;28;20075;-59
2021/06/05 06:45:45;;;;;;;5.68;4.00;;;;;;;21.53;100.00;96692.53;5062113;28;20551;-59
2021/06/05 06:48:13;;;;;;;8.60;4.22;;;;;;;21.78;100.00;96696.25;5057427;28;20075;-58
2021/06/05 06:50:41;;;;;;;4.40;3.90;;;;;;;22.11;100.00;96695.31;5059773;28;20068;-58
2021/06/05 06:53:09;;;;;;;6.10;4.40;;;;;;;21.83;100.00;96698.28;5056700;28;20067;-58
2021/06/05 06:55:39;;;;;;;5.68;3.78;;;;;;;22.17;100.00;96701.75;5059811;28;20692;-57
2021/06/05 06:58:07;;;;;;;5.68;4.35;;;;;;;22.30;100.00;96696.31;5054177;28;20088;-57
2021/06/05 07:00:38;;;;;;;5.32;4.15;;;;;;;22.65;100.00;96687.88;5061273;28;20095;-59
2021/06/05 07:03:06;;;;;;;;;;;;;;;22.63;100.00;96689.97;5053815;28;20095;-57
2021/06/05 07:05:35;;;;;;;5.35;3.95;;;;;;;23.03;100.00;96690.59;5058762;28;19955;-56
2021/06/05 07:08:11;;;;;;;5.38;4.28;;;;;;;22.71;100.00;96693.22;5055429;28;20083;-56
2021/06/05 07:10:41;;;;;;;5.25;3.83;;;;;;;22.70;100.00;96696.94;5058695;28;20072;-58
2021/06/05 07:13:10;;;;;;;4.00;3.50;;;;;;;22.91;100.00;96703.03;5059943;28;20080;-58
2021/06/05 07:15:38;;;;;;;4.55;3.75;;;;;;;22.77;100.00;96701.47;5054162;28;20168;-57
2021/06/05 07:18:08;;;;;;;5.22;4.10;;;;;;;22.66;100.00;96702.97;5055108;28;20072;-57
2021/06/05 07:20:37;;;;;;;7.45;3.63;;;;;;;22.98;100.00;96701.97;5053628;28;20076;-58
2021/06/05 07:23:06;;;;;;;4.60;3.58;;;;;;;23.46;100.00;96703.28;5058936;28;20064;-61
2021/06/05 07:25:35;;;;;;;3.97;3.13;;;;;;;23.01;100.00;96698.03;5055810;28;20539;-62
2021/06/05 07:28:18;;;;;;;3.38;3.00;;;;;;;23.68;100.00;96695.69;5055774;28;20595;-62
2021/06/05 07:30:48;;;;;;;4.93;3.10;;;;;;;23.49;100.00;96699.31;5059314;28;20079;-61
2021/06/05 07:33:17;;;;;;;4.25;3.10;;;;;;;23.89;100.00;96694.44;5057557;28;20528;-61
2021/06/05 07:35:45;;;;;;;3.90;2.88;;;;;;;23.98;97.97;96695.75;5048188;28;20228;-61
2021/06/05 07:38:15;;;;;;;3.95;2.70;;;;;;;23.99;96.27;96688.53;5057394;28;20464;-60
2021/06/05 07:40:44;;;;;;;14.00;3.10;;;;;;;24.17;96.46;96689.34;5052149;28;20079;-60
2021/06/05 07:43:15;;;;;;;4.43;2.97;;;;;;;24.51;93.56;96687.09;5051678;28;20080;-61
2021/06/05 07:45:44;;;;;;;2.92;2.60;;;;;;;24.04;91.68;96688.66;5061070;28;20080;-60
2021/06/05 07:48:12;;;;;;;34.65;4.60;;;;;;;24.46;91.86;96686.94;5059018;28;20079;-61
2021/06/05 07:50:42;;;;;;;2.90;2.40;;;;;;;24.43;97.48;96684.69;5050308;28;20073;-61
2021/06/05 07:53:10;;;;;;;4.30;2.72;;;;;;;24.64;80.42;96688.81;5058587;28;20472;-59
2021/06/05 07:55:39;;;;;;;4.05;2.67;;;;;;;24.10;88.60;96695.88;5050529;28;20060;-60
2021/06/05 07:58:07;;;;;;;4.00;2.60;;;;;;;24.99;83.18;96686.22;5057288;28;20076;-61
2021/06/05 08:00:37;;;;;;;3.72;2.47;;;;;;;24.55;89.42;96690.16;5056580;28;20087;-61
2021/06/05 08:03:06;;;;;;;;;;;;;;;24.65;82.32;96685.06;5055518;28;20069;-60
2021/06/05 08:05:35;;;;;;;8.27;3.10;;;;;;;24.37;85.19;96693.69;5048625;28;19956;-61
2021/06/05 08:08:03;;;;;;;4.07;2.50;;;;;;;24.91;87.57;96693.81;5055035;28;20063;-60
2021/06/05 08:10:31;;;;;;;2.83;2.50;;;;;;;24.46;84.27;96689.63;5054098;28;20080;-61
2021/06/05 08:13:00;;;;;;;4.30;2.65;;;;;;;24.45;86.13;96703.34;5052913;28;20190;-61
2021/06/05 08:15:30;;;;;;;29.20;3.33;;;;;;;24.39;89.27;96694.25;5054498;28;20081;-62
2021/06/05 08:17:59;;;;;;;4.43;2.40;;;;;;;25.26;82.20;96692.09;5057912;28;20085;-60
2021/06/05 08:20:31;;;;;;;4.07;2.50;;;;;;;25.66;83.44;96691.41;5059200;28;20487;-61
2021/06/05 08:22:59;;;;;;;4.65;2.95;;;;;;;25.60;76.53;96686.94;5053074;28;20065;-62
2021/06/05 08:25:28;;;;;;;3.30;2.60;;;;;;;26.10;74.56;96691.88;5055524;28;20112;-60
2021/06/05 08:27:56;;;;;;;3.95;2.80;;;;;;;24.99;78.17;96693.50;5057453;28;20554;-62
2021/06/05 08:30:30;;;;;;;3.20;2.90;;;;;;;25.41;79.98;96691.63;5056397;28;20306;-60
2021/06/05 08:33:00;;;;;;;9.13;5.35;;;;;;;25.06;80.38;96691.53;5050752;28;20071;-61
2021/06/05 08:35:28;;;;;;;;;;;;;;;25.02;82.51;96695.75;5058254;28;20044;-62
2021/06/05 08:37:56;;;;;;;18.17;3.80;;;;;;;24.36;88.97;96711.72;5054203;28;19990;-60
2021/06/05 08:40:41;;;;;;;5.68;2.63;;;;;;;24.80;88.21;96700.81;5053317;28;20675;-59
2021/06/05 08:43:36;;;;;;;5.68;2.65;;;;;;;24.84;86.67;96699.31;5049488;28;20064;-62
2021/06/05 08:46:07;;;;;;;5.38;2.20;;;;;;;25.67;83.96;96692.22;5049888;28;20132;-61
2021/06/05 08:48:36;;;;;;;4.88;3.03;;;;;;;25.56;75.63;96696.56;5058500;28;20515;-60
2021/06/05 08:51:14;;;;;;;7.32;2.95;;;;;;;25.33;75.15;96694.69;5055414;28;20072;-61
2021/06/05 08:53:42;;;;;;;7.15;2.65;;;;;;;25.01;78.08;96689.50;5059742;28;20057;-64
2021/06/05 08:56:14;;;;;;;3.30;2.42;;;;;;;25.15;75.84;96690.16;5050461;28;20071;-61
2021/06/05 08:58:45;;;;;;;10.30;2.70;;;;;;;25.53;73.89;96687.06;5044009;28;20068;-62
2021/06/05 09:01:22;;;;;;;6.18;2.83;;;;;;;26.41;68.77;96684.41;5057476;28;21487;-61
2021/06/05 09:03:55;;;;;;;27.38;3.65;;;;;;;26.09;70.10;96690.25;5055821;28;20107;-58
2021/06/05 09:06:51;;;;;;;8.38;2.45;;;;;;;25.84;68.53;96685.06;5058906;28;20269;-60
2021/06/05 09:09:24;;;;;;;10.35;3.03;;;;;;;25.77;65.61;96684.34;5057239;28;20072;-59
2021/06/05 09:11:52;;;;;;;8.55;2.92;;;;;;;26.83;63.53;96676.84;5060296;28;20067;-62
2021/06/05 09:14:20;;;;;;;8.02;2.60;;;;;;;26.79;63.18;96677.59;5061831;28;20064;-60
2021/06/05 09:16:49;;;;;;;4.30;2.28;;;;;;;27.18;61.73;96684.81;5063459;28;20617;-61
2021/06/05 09:19:27;;;;;;;2.72;2.05;;;;;;;27.12;56.96;96684.97;5060179;28;20080;-61
2021/06/05 09:22:04;;;;;;;4.25;2.70;;;;;;;27.72;61.35;96681.63;5055117;28;20473;-60
2021/06/05 09:24:33;;;;;;;3.17;2.15;;;;;;;27.24;55.90;96682.22;5059128;28;20463;-61
2021/06/05 09:27:06;;;;;;;4.88;2.00;;;;;;;27.88;55.26;96688.13;5063854;28;20111;-58
2021/06/05 09:29:47;;;;;;;3.50;2.00;;;;;;;27.18;56.53;96684.00;5057886;28;20067;-62
2021/06/05 09:32:17;;;;;;;8.27;2.58;;;;;;;26.89;60.68;96691.31;5057997;28;20073;-59
2021/06/05 09:34:52;;;;;;;6.93;2.38;;;;;;;26.79;58.41;96693.84;5058252;28;20087;-61
2021/06/05 09:37:30;;;;;;;69.30;4.65;;;;;;;27.37;56.91;96692.72;5066231;28;20074;-59
2021/06/05 09:40:16;;;;;;;2.92;2.10;;;;;;;27.23;57.97;96691.41;5059718;28;20483;-61
2021/06/05 09:42:46;;;;;;;2.88;2.17;;;;;;;27.16;63.34;96686.16;5063383;28;20080;-62
2021/06/05 09:45:22;;;;;;;;;;;;;;;27.57;62.79;96684.94;5058060;28;20444;-61
2021/06/05 09:47:51;;;;;;;3.88;2.50;;;;;;;27.33;64.67;96691.59;5061430;28;19971;-59
2021/06/05 09:50:25;;;;;;;5.53;2.10;;;;;;;26.82;76.16;96682.53;5054458;28;20075;-60
2021/06/05 09:52:53;;;;;;;2.38;1.95;;;;;;;26.50;69.47;96688.41;5058507;28;20459;-61
2021/06/05 09:55:37;;;;;;;3.47;2.20;;;;;;;26.81;67.93;96686.31;5062133;28;20063;-59
2021/06/05 09:58:10;;;;;;;2.08;1.58;;;;;;;26.59;69.77;96686.97;5062487;28;20145;-61
2021/06/05 10:00:40;;;;;;;4.07;2.25;;;;;;;26.49;68.68;96689.47;5064266;28;20076;-61
2021/06/05 10:03:19;;;;;;;3.55;1.90;;;;;;;26.83;65.05;96682.28;5062777;28;20110;-62
2021/06/05 10:05:50;;;;;;;3.78;1.75;;;;;;;27.33;64.50;96683.47;5061137;28;20072;-62
2021/06/05 10:08:24;;;;;;;6.30;1.80;;;;;;;27.54;63.36;96679.19;5064847;28;20067;-59
2021/06/05 10:10:56;;;;;;;23.92;2.38;;;;;;;26.58;66.01;96673.69;5055360;28;20077;-62
2021/06/05 10:13:27;;;;;;;4.15;1.65;;;;;;;27.08;58.51;96670.25;5060649;28;20450;-60
2021/06/05 10:15:56;;;;;;;2.03;1.30;;;;;;;26.51;56.80;96677.34;5062819;28;20472;-60
2021/06/05 10:18:26;;;;;;;3.53;1.33;;;;;;;26.58;63.25;96671.78;5057748;28;20060;-61
2021/06/05 10:20:59;;;;;;;2.20;1.40;;;;;;;26.52;63.11;96668.16;5054573;28;20083;-60
2021/06/05 10:23:30;;;;;;;4.10;1.27;;;;;;;26.51;56.47;96663.81;5055853;28;20087;-61
2021/06/05 10:26:01;;;;;;;2.63;1.23;;;;;;;26.41;54.93;96658.19;5061259;28;20087;-62
2021/06/05 10:28:33;;;;;;;1.52;1.00;;;;;;;26.33;50.05;96660.47;5061563;28;20147;-61
2021/06/05 10:31:05;;;;;;;1.90;1.00;;;;;;;26.37;53.82;96664.31;5061279;28;20088;-56
2021/06/05 10:33:38;;;;;;;2.17;1.00;;;;;;;26.63;48.38;96654.84;5062846;28;20091;-60
2021/06/05 10:36:12;;;;;;;2.03;0.90;;;;;;;26.17;52.66;96657.44;5055933;28;20060;-61
2021/06/05 10:38:42;;;;;;;2.25;1.00;;;;;;;25.93;51.31;96655.84;5063684;28;20084;-60
2021/06/05 10:41:14;;;;;;;2.72;1.10;;;;;;;26.07;52.23;96654.50;5055552;28;20068;-59
2021/06/05 10:43:42;;;;;;;2.13;1.08;;;;;;;25.92;51.10;96662.31;5057803;28;20071;-60
2021/06/05 10:46:22;;;;;;;1.65;0.90;;;;;;;25.96;49.74;96653.47;5059100;28;20087;-61
2021/06/05 10:48:51;;;;;;;1.83;1.00;;;;;;;26.44;51.18;96662.31;5060889;28;20068;-61
2021/06/05 10:51:23;;;;;;;2.95;0.90;;;;;;;27.03;48.58;96652.06;5059832;28;20839;-60
2021/06/05 10:54:01;;;;;;;2.63;1.00;;;;;;;26.64;55.84;96645.69;5053055;28;20060;-61
2021/06/05 10:56:36;;;;;;;1.67;0.90;;;;;;;27.36;54.67;96645.06;5059685;28;20068;-61
2021/06/05 10:59:38;;;;;;;2.58;0.90;;;;;;;26.48;50.60;96648.06;5055574;28;20736;-60
2021/06/05 11:02:06;;;;;;;2.55;0.98;;;;;;;26.77;53.01;96645.34;5049809;28;20056;-60
2021/06/05 11:04:42;;;;;;;1.38;0.90;;;;;;;26.49;52.24;96643.47;5057295;28;20068;-60
2021/06/05 11:07:30;;;;;;;1.35;1.00;;;;;;;26.00;53.03;96649.22;5058294;28;20076;-61
2021/06/05 11:10:00;;;;;;;2.20;0.90;;;;;;;26.26;56.58;96639.78;5057377;28;20083;-61
2021/06/05 11:13:01;;;;;;;1.58;0.95;;;;;;;26.99;51.30;96638.19;5062481;28;20076;-60
2021/06/05 11:15:51;;;;;;;4.97;1.02;;;;;;;26.03;55.69;96632.53;4981437;28;21285;-61
2021/06/05 11:18:32;;;;;;;;;;;;;;;26.42;57.44;96630.06;4973376;28;20074;-61
2021/06/05 11:21:47;;;;;;;2.53;1.10;;;;;;;25.84;58.38;96635.63;5035534;28;19970;-62
2021/06/05 11:24:21;;;;;;;3.67;0.90;;;;;;;25.91;56.19;96629.06;5011759;28;20078;-60
2021/06/05 11:26:51;;;;;;;1.42;0.80;;;;;;;26.28;56.52;96634.13;5061274;28;20476;-63
2021/06/05 11:29:37;;;;;;;;;;;;;;;26.08;52.97;96637.22;5056830;28;20071;-61
2021/06/05 11:32:32;;;;;;;2.53;1.00;;;;;;;26.24;56.85;96631.06;5055958;28;20403;-60
2021/06/05 11:35:03;;;;;;;1.00;0.90;;;;;;;26.38;54.10;96634.31;5053841;28;20072;-61
2021/06/05 11:37:49;;;;;;;;;;;;;;;27.16;57.97;96621.16;5058810;28;20060;-61
2021/06/05 11:40:50;;;;;;;1.50;0.77;;;;;;;26.86;51.38;96624.16;5049517;28;19967;-61